createdAt,value
2019-03-30T00:01:17.700Z,99323
2019-03-30T00:02:46.437Z,99323
2019-03-30T00:04:15.227Z,99322
2019-03-30T00:05:43.948Z,99321
2019-03-30T00:07:13.460Z,99318
2019-03-30T00:08:42.292Z,99317
2019-03-30T00:10:11.141Z,99315
2019-03-30T00:11:40.820Z,99315
2019-03-30T00:13:09.543Z,99313
2019-03-30T00:14:38.264Z,99314
2019-03-30T00:16:07.859Z,99314
2019-03-30T00:17:36.587Z,99314
2019-03-30T00:19:05.543Z,99315
2019-03-30T00:20:35.155Z,99314
2019-03-30T00:22:04.820Z,99314
2019-03-30T00:23:33.790Z,99313
2019-03-30T00:25:02.777Z,99312
2019-03-30T00:26:31.859Z,99312
2019-03-30T00:28:00.583Z,99310
2019-03-30T00:29:29.332Z,99311
2019-03-30T00:30:58.349Z,99312
2019-03-30T00:32:27.142Z,99314
2019-03-30T00:33:56.421Z,99315
2019-03-30T00:35:25.141Z,99314
2019-03-30T00:36:54.585Z,99317
2019-03-30T00:38:23.428Z,99318
2019-03-30T00:39:52.182Z,99315
2019-03-30T00:41:20.905Z,99313
2019-03-30T00:42:50.106Z,99312
2019-03-30T00:44:19.538Z,99311
2019-03-30T00:45:48.262Z,99310
2019-03-30T00:47:16.991Z,99311
2019-03-30T00:48:46.901Z,99312
2019-03-30T00:50:15.620Z,99311
2019-03-30T00:51:44.339Z,99312
2019-03-30T00:53:13.232Z,99311
2019-03-30T00:54:41.932Z,99311
2019-03-30T00:56:10.747Z,99310
2019-03-30T00:57:39.622Z,99310
2019-03-30T00:59:08.342Z,99309
2019-03-30T01:00:38.024Z,99307
2019-03-30T01:02:07.297Z,99308
2019-03-30T01:03:36.902Z,99307
2019-03-30T01:05:05.621Z,99307
2019-03-30T01:06:34.585Z,99306
2019-03-30T01:08:04.184Z,99307
2019-03-30T01:09:32.897Z,99307
2019-03-30T01:11:01.625Z,99308
2019-03-30T01:12:30.343Z,99307
2019-03-30T01:13:59.064Z,99307
2019-03-30T01:15:28.025Z,99308
2019-03-30T01:16:57.620Z,99306
2019-03-30T01:18:26.350Z,99305
2019-03-30T01:20:07.877Z,99306
2019-03-30T01:21:36.735Z,99308
2019-03-30T01:23:06.433Z,99307
2019-03-30T01:24:36.260Z,99306
2019-03-30T01:26:04.984Z,99304
2019-03-30T01:27:33.705Z,99302
2019-03-30T01:29:02.420Z,99301
2019-03-30T01:30:32.042Z,99299
2019-03-30T01:32:02.658Z,99301
2019-03-30T01:33:32.258Z,99301
2019-03-30T01:35:01.031Z,99299
2019-03-30T01:36:30.658Z,99298
2019-03-30T01:38:02.984Z,99296
2019-03-30T01:39:31.698Z,99297
2019-03-30T01:41:00.661Z,99296
2019-03-30T01:42:29.464Z,99297
2019-03-30T01:43:58.178Z,99295
2019-03-30T01:45:27.940Z,99294
2019-03-30T01:46:56.660Z,99293
2019-03-30T01:48:26.102Z,99292
2019-03-30T01:49:54.818Z,99289
2019-03-30T01:51:23.868Z,99289
2019-03-30T01:52:52.987Z,99285
2019-03-30T01:54:21.780Z,99284
2019-03-30T01:55:50.497Z,99284
2019-03-30T01:57:19.427Z,99283
2019-03-30T01:58:49.217Z,99282
2019-03-30T02:00:17.939Z,99279
2019-03-30T02:01:46.657Z,99277
2019-03-30T02:03:15.454Z,99272
2019-03-30T02:04:45.061Z,99272
2019-03-30T02:06:13.774Z,99273
2019-03-30T02:07:42.830Z,99271
2019-03-30T02:09:12.420Z,99270
2019-03-30T02:10:41.220Z,99271
2019-03-30T02:12:09.939Z,99271
2019-03-30T02:13:38.901Z,99268
2019-03-30T02:15:07.618Z,99269
2019-03-30T02:16:36.354Z,99268
2019-03-30T02:18:05.063Z,99267
2019-03-30T02:19:34.666Z,99266
2019-03-30T02:21:04.098Z,99264
2019-03-30T02:22:33.381Z,99263
2019-03-30T02:24:02.097Z,99264
2019-03-30T02:25:31.159Z,99263
2019-03-30T02:27:00.102Z,99264
2019-03-30T02:28:28.818Z,99263
2019-03-30T02:29:57.534Z,99261
2019-03-30T02:31:27.153Z,99261
2019-03-30T02:32:55.956Z,99262
2019-03-30T02:34:24.740Z,99262
2019-03-30T02:35:53.544Z,99262
2019-03-30T02:37:22.296Z,99261
2019-03-30T02:38:51.059Z,99259
2019-03-30T02:40:19.783Z,99257
2019-03-30T02:41:48.507Z,99256
2019-03-30T02:43:17.396Z,99255
2019-03-30T02:44:46.106Z,99254
2019-03-30T02:46:14.824Z,99252
2019-03-30T02:47:43.620Z,99251
2019-03-30T02:49:14.178Z,99248
2019-03-30T02:50:55.148Z,99243
2019-03-30T02:52:24.037Z,99241
2019-03-30T02:53:52.822Z,99237
2019-03-30T02:55:21.540Z,99236
2019-03-30T02:56:50.284Z,99235
2019-03-30T02:58:19.061Z,99235
2019-03-30T02:59:47.782Z,99235
2019-03-30T03:01:16.510Z,99235
2019-03-30T03:02:45.301Z,99235
2019-03-30T03:04:14.197Z,99234
2019-03-30T03:05:43.238Z,99235
2019-03-30T03:07:12.898Z,99233
2019-03-30T03:08:41.701Z,99234
2019-03-30T03:10:11.162Z,99235
2019-03-30T03:11:40.365Z,99237
2019-03-30T03:13:09.272Z,99238
2019-03-30T03:14:38.030Z,99238
2019-03-30T03:16:06.835Z,99235
2019-03-30T03:17:35.804Z,99234
2019-03-30T03:19:05.455Z,99233
2019-03-30T03:20:34.175Z,99232
2019-03-30T03:22:02.976Z,99232
2019-03-30T03:23:31.701Z,99233
2019-03-30T03:25:01.461Z,99232
2019-03-30T03:26:30.282Z,99232
2019-03-30T03:27:59.095Z,99230
2019-03-30T03:29:27.865Z,99228
2019-03-30T03:30:56.742Z,99226
2019-03-30T03:32:26.432Z,99226
2019-03-30T03:33:55.249Z,99223
2019-03-30T03:35:24.098Z,99222
2019-03-30T03:36:52.825Z,99223
2019-03-30T03:38:21.536Z,99225
2019-03-30T03:39:51.058Z,99225
2019-03-30T03:41:19.783Z,99226
2019-03-30T03:42:48.587Z,99226
2019-03-30T03:44:17.621Z,99224
2019-03-30T03:45:47.309Z,99224
2019-03-30T03:47:16.103Z,99225
2019-03-30T03:48:45.787Z,99226
2019-03-30T03:50:14.654Z,99227
2019-03-30T03:51:43.378Z,99226
2019-03-30T03:53:12.099Z,99225
2019-03-30T03:54:40.928Z,99224
2019-03-30T03:56:09.791Z,99223
2019-03-30T03:57:38.591Z,99222
2019-03-30T03:59:08.281Z,99222
2019-03-30T04:00:37.466Z,99222
2019-03-30T04:02:06.264Z,99223
2019-03-30T04:03:35.858Z,99222
2019-03-30T04:05:04.672Z,99224
2019-03-30T04:06:33.493Z,99225
2019-03-30T04:08:02.275Z,99226
2019-03-30T04:09:32.027Z,99225
2019-03-30T04:11:00.836Z,99223
2019-03-30T04:12:29.885Z,99223
2019-03-30T04:13:58.659Z,99223
2019-03-30T04:15:27.385Z,99224
2019-03-30T04:16:56.105Z,99224
2019-03-30T04:18:25.550Z,99225
2019-03-30T04:19:54.836Z,99225
2019-03-30T04:21:23.860Z,99226
2019-03-30T04:22:52.763Z,99225
2019-03-30T04:24:21.553Z,99223
2019-03-30T04:25:51.220Z,99222
2019-03-30T04:27:20.910Z,99222
2019-03-30T04:28:51.791Z,99221
2019-03-30T04:30:21.419Z,99219
2019-03-30T04:31:50.192Z,99217
2019-03-30T04:33:19.509Z,99214
2019-03-30T04:34:48.262Z,99214
2019-03-30T04:36:16.992Z,99215
2019-03-30T04:37:46.294Z,99215
2019-03-30T04:39:15.940Z,99215
2019-03-30T04:40:44.672Z,99215
2019-03-30T04:42:13.384Z,99214
2019-03-30T04:43:42.364Z,99213
2019-03-30T04:45:11.152Z,99211
2019-03-30T04:46:39.951Z,99209
2019-03-30T04:48:08.755Z,99208
2019-03-30T04:49:38.187Z,99209
2019-03-30T04:51:06.899Z,99206
2019-03-30T04:52:35.707Z,99205
2019-03-30T04:54:04.421Z,99203
2019-03-30T04:55:33.541Z,99202
2019-03-30T04:57:02.339Z,99201
2019-03-30T04:58:31.061Z,99201
2019-03-30T04:59:59.780Z,99200
2019-03-30T05:01:30.603Z,99201
2019-03-30T05:02:59.384Z,99202
2019-03-30T05:04:28.100Z,99201
2019-03-30T05:05:56.830Z,99201
2019-03-30T05:07:25.540Z,99200
2019-03-30T05:08:54.274Z,99202
2019-03-30T05:10:22.984Z,99203
2019-03-30T05:11:52.589Z,99203
2019-03-30T05:13:21.304Z,99204
2019-03-30T05:14:50.899Z,99204
2019-03-30T05:16:19.631Z,99205
2019-03-30T05:17:52.818Z,99207
2019-03-30T05:19:21.543Z,99208
2019-03-30T05:20:50.261Z,99207
2019-03-30T05:22:21.698Z,99207
2019-03-30T05:23:50.506Z,99208
2019-03-30T05:25:19.230Z,99205
2019-03-30T05:26:48.033Z,99204
2019-03-30T05:28:17.875Z,99201
2019-03-30T05:29:46.594Z,99199
2019-03-30T05:31:15.377Z,99198
2019-03-30T05:32:46.745Z,99195
2019-03-30T05:34:15.542Z,99193
2019-03-30T05:35:44.261Z,99194
2019-03-30T05:37:12.987Z,99194
2019-03-30T05:38:41.839Z,99194
2019-03-30T05:40:11.543Z,99192
2019-03-30T05:41:40.259Z,99189
2019-03-30T05:43:08.981Z,99188
2019-03-30T05:44:37.705Z,99189
2019-03-30T05:46:06.435Z,99189
2019-03-30T05:47:35.142Z,99190
2019-03-30T05:49:04.745Z,99194
2019-03-30T05:50:33.462Z,99195
2019-03-30T05:52:03.055Z,99197
2019-03-30T05:53:31.871Z,99196
2019-03-30T05:55:00.598Z,99196
2019-03-30T05:56:29.395Z,99199
2019-03-30T05:57:58.181Z,99197
2019-03-30T05:59:26.898Z,99196
2019-03-30T06:00:55.627Z,99196
2019-03-30T06:02:24.502Z,99197
2019-03-30T06:03:53.245Z,99198
2019-03-30T06:05:22.019Z,99200
2019-03-30T06:06:50.741Z,99201
2019-03-30T06:08:19.470Z,99202
2019-03-30T06:09:48.179Z,99203
2019-03-30T06:11:16.978Z,99205
2019-03-30T06:12:45.937Z,99205
2019-03-30T06:14:14.739Z,99205
2019-03-30T06:15:43.539Z,99204
2019-03-30T06:17:12.659Z,99204
2019-03-30T06:18:41.395Z,99205
2019-03-30T06:20:10.190Z,99204
2019-03-30T06:21:40.744Z,99207
2019-03-30T06:23:10.424Z,99209
2019-03-30T06:24:39.785Z,99209
2019-03-30T06:26:09.468Z,99207
2019-03-30T06:27:38.193Z,99203
2019-03-30T06:29:07.870Z,99204
2019-03-30T06:30:36.658Z,99204
2019-03-30T06:32:06.258Z,99206
2019-03-30T06:33:35.857Z,99204
2019-03-30T06:35:05.544Z,99200
2019-03-30T06:36:35.144Z,99199
2019-03-30T06:38:03.868Z,99197
2019-03-30T06:39:32.582Z,99197
2019-03-30T06:41:02.272Z,99198
2019-03-30T06:42:30.995Z,99196
2019-03-30T06:44:00.666Z,99195
2019-03-30T06:45:29.380Z,99193
2019-03-30T06:46:58.109Z,99194
2019-03-30T06:48:26.818Z,99192
2019-03-30T06:49:56.185Z,99193
2019-03-30T06:51:24.901Z,99197
2019-03-30T06:53:03.064Z,99197
2019-03-30T06:54:31.789Z,99198
2019-03-30T06:56:01.477Z,99197
2019-03-30T06:57:30.195Z,99197
2019-03-30T06:58:59.007Z,99199
2019-03-30T07:00:28.025Z,99200
2019-03-30T07:01:56.820Z,99197
2019-03-30T07:03:25.545Z,99197
2019-03-30T07:04:55.139Z,99194
2019-03-30T07:06:23.867Z,99194
2019-03-30T07:07:53.065Z,99193
2019-03-30T07:09:22.685Z,99191
2019-03-30T07:10:51.460Z,99190
2019-03-30T07:12:20.273Z,99187
2019-03-30T07:13:48.985Z,99186
2019-03-30T07:15:17.699Z,99186
2019-03-30T07:16:46.659Z,99187
2019-03-30T07:18:15.694Z,99187
2019-03-30T07:19:44.522Z,99183
2019-03-30T07:21:14.179Z,99183
2019-03-30T07:22:42.984Z,99184
2019-03-30T07:24:12.224Z,99185
2019-03-30T07:25:41.000Z,99185
2019-03-30T07:27:09.860Z,99185
2019-03-30T07:28:38.660Z,99184
2019-03-30T07:30:08.189Z,99185
2019-03-30T07:31:36.980Z,99183
2019-03-30T07:33:06.340Z,99184
2019-03-30T07:34:35.141Z,99182
2019-03-30T07:36:04.429Z,99181
2019-03-30T07:37:33.223Z,99178
2019-03-30T07:39:01.938Z,99175
2019-03-30T07:40:34.180Z,99172
2019-03-30T07:42:03.585Z,99172
2019-03-30T07:43:33.323Z,99169
2019-03-30T07:45:03.785Z,99169
2019-03-30T07:46:32.587Z,99169
2019-03-30T07:48:01.301Z,99169
2019-03-30T07:49:30.017Z,99171
2019-03-30T07:50:58.822Z,99170
2019-03-30T07:52:27.537Z,99170
2019-03-30T07:53:56.254Z,99169
2019-03-30T07:55:26.735Z,99168
2019-03-30T07:57:17.531Z,99168
2019-03-30T07:58:47.304Z,99167
2019-03-30T08:00:16.017Z,99167
2019-03-30T08:01:44.903Z,99166
2019-03-30T08:03:13.621Z,99164
2019-03-30T08:04:42.338Z,99162
2019-03-30T08:06:11.284Z,99161
2019-03-30T08:07:40.258Z,99161
2019-03-30T08:09:09.304Z,99162
2019-03-30T08:10:38.105Z,99162
2019-03-30T08:12:07.858Z,99161
2019-03-30T08:13:38.485Z,99158
2019-03-30T08:15:08.200Z,99156
2019-03-30T08:16:36.982Z,99157
2019-03-30T08:18:05.708Z,99158
2019-03-30T08:19:35.379Z,99155
2019-03-30T08:21:04.107Z,99151
2019-03-30T08:22:33.389Z,99149
2019-03-30T08:24:02.189Z,99148
2019-03-30T08:25:31.344Z,99146
2019-03-30T08:27:00.113Z,99145
2019-03-30T08:28:29.306Z,99146
2019-03-30T08:29:58.028Z,99142
2019-03-30T08:31:28.098Z,99141
2019-03-30T08:32:56.839Z,99140
2019-03-30T08:34:26.098Z,99142
2019-03-30T08:35:55.786Z,99144
2019-03-30T08:37:24.745Z,99145
2019-03-30T08:38:53.462Z,99144
2019-03-30T08:40:22.505Z,99142
2019-03-30T08:41:51.947Z,99139
2019-03-30T08:43:20.660Z,99140
2019-03-30T08:44:49.789Z,99138
2019-03-30T08:46:18.578Z,99136
2019-03-30T08:47:47.298Z,99132
2019-03-30T08:49:16.017Z,99130
2019-03-30T08:50:44.742Z,99128
2019-03-30T08:52:13.465Z,99127
2019-03-30T08:53:55.082Z,99122
2019-03-30T08:55:24.022Z,99123
2019-03-30T08:56:52.821Z,99120
2019-03-30T08:58:22.421Z,99120
2019-03-30T08:59:51.140Z,99120
2019-03-30T09:01:20.433Z,99119
2019-03-30T09:02:49.218Z,99121
2019-03-30T09:04:17.940Z,99120
2019-03-30T09:05:48.101Z,99116
2019-03-30T09:07:17.702Z,99116
2019-03-30T09:08:46.420Z,99117
2019-03-30T09:10:15.138Z,99113
2019-03-30T09:11:44.026Z,99112
2019-03-30T09:13:13.626Z,99109
2019-03-30T09:14:43.220Z,99105
2019-03-30T09:16:11.941Z,99101
2019-03-30T09:17:42.420Z,99099
2019-03-30T09:19:12.021Z,99098
2019-03-30T09:20:41.300Z,99094
2019-03-30T09:22:10.017Z,99089
2019-03-30T09:23:38.737Z,99086
2019-03-30T09:25:09.141Z,99084
2019-03-30T09:26:37.855Z,99082
2019-03-30T09:28:07.301Z,99083
2019-03-30T09:29:36.863Z,99080
2019-03-30T09:31:05.702Z,99078
2019-03-30T09:32:34.518Z,99075
2019-03-30T09:34:03.230Z,99074
2019-03-30T09:35:32.263Z,99074
2019-03-30T09:37:01.945Z,99068
2019-03-30T09:38:30.660Z,99064
2019-03-30T09:40:00.494Z,99065
2019-03-30T09:41:29.943Z,99063
2019-03-30T09:42:58.660Z,99063
2019-03-30T09:44:27.633Z,99062
2019-03-30T09:45:56.340Z,99060
2019-03-30T09:47:25.068Z,99057
2019-03-30T09:48:54.664Z,99053
2019-03-30T09:50:25.142Z,99051
2019-03-30T09:51:54.740Z,99051
2019-03-30T09:53:23.461Z,99047
2019-03-30T09:54:52.177Z,99045
2019-03-30T09:56:23.175Z,99045
2019-03-30T09:57:52.182Z,99044
2019-03-30T09:59:21.859Z,99044
2019-03-30T10:00:52.434Z,99041
2019-03-30T10:02:22.102Z,99038
2019-03-30T10:03:50.910Z,99036
2019-03-30T10:05:19.622Z,99038
2019-03-30T10:06:48.344Z,99038
2019-03-30T10:08:17.142Z,99037
2019-03-30T10:09:47.619Z,99036
2019-03-30T10:11:16.448Z,99032
2019-03-30T10:12:46.097Z,99027
2019-03-30T10:14:14.822Z,99031
2019-03-30T10:15:44.420Z,99032
2019-03-30T10:17:13.148Z,99031
2019-03-30T10:18:41.864Z,99027
2019-03-30T10:20:10.590Z,99026
2019-03-30T10:21:39.299Z,99025
2019-03-30T10:23:08.123Z,99021
2019-03-30T10:24:43.532Z,99019
2019-03-30T10:26:12.823Z,99020
2019-03-30T10:27:41.712Z,99016
2019-03-30T10:29:11.487Z,99017
2019-03-30T10:30:40.984Z,99020
2019-03-30T10:32:09.706Z,99015
2019-03-30T10:33:38.499Z,99016
2019-03-30T10:35:07.302Z,99015
2019-03-30T10:36:36.021Z,99012
2019-03-30T10:38:04.739Z,99009
2019-03-30T10:39:33.467Z,99008
2019-03-30T10:41:03.072Z,99004
2019-03-30T10:42:32.745Z,99006
2019-03-30T10:44:01.542Z,99002
2019-03-30T10:45:30.353Z,99002
2019-03-30T10:46:59.138Z,99000
2019-03-30T10:48:27.860Z,98996
2019-03-30T10:49:57.061Z,98995
2019-03-30T10:51:26.753Z,98994
2019-03-30T10:52:57.299Z,98993
2019-03-30T10:54:26.037Z,98995
2019-03-30T10:55:54.822Z,98990
2019-03-30T10:57:23.549Z,98991
2019-03-30T10:58:52.348Z,98983
2019-03-30T11:00:21.065Z,98984
2019-03-30T11:01:52.374Z,98983
2019-03-30T11:03:21.944Z,98980
2019-03-30T11:04:51.537Z,98978
2019-03-30T11:06:20.270Z,98980
2019-03-30T11:07:49.393Z,98981
2019-03-30T11:09:19.296Z,98979
2019-03-30T11:10:48.098Z,98976
2019-03-30T11:12:17.308Z,98981
2019-03-30T11:13:46.024Z,98978
2019-03-30T11:15:14.744Z,98977
2019-03-30T11:16:45.218Z,98975
2019-03-30T11:18:13.942Z,98967
2019-03-30T11:19:42.661Z,98958
2019-03-30T11:21:12.662Z,98961
2019-03-30T11:22:41.382Z,98961
2019-03-30T11:24:11.864Z,98960
2019-03-30T11:25:41.460Z,98960
2019-03-30T11:27:10.185Z,98952
2019-03-30T11:28:38.899Z,98953
2019-03-30T11:30:07.621Z,98953
2019-03-30T11:31:36.348Z,98950
2019-03-30T11:33:06.286Z,98939
2019-03-30T11:34:35.942Z,98936
2019-03-30T11:36:04.894Z,98935
2019-03-30T11:37:33.708Z,98937
2019-03-30T11:39:02.424Z,98933
2019-03-30T11:40:31.145Z,98935
2019-03-30T11:42:00.744Z,98937
2019-03-30T11:43:29.463Z,98940
2019-03-30T11:44:58.943Z,98941
2019-03-30T11:46:27.699Z,98940
2019-03-30T11:47:57.303Z,98936
2019-03-30T11:49:26.268Z,98934
2019-03-30T11:50:54.997Z,98931
2019-03-30T11:52:24.026Z,98930
2019-03-30T11:53:53.384Z,98931
2019-03-30T11:55:27.086Z,98927
2019-03-30T11:56:56.020Z,98922
2019-03-30T11:58:25.466Z,98918
2019-03-30T11:59:54.179Z,98918
2019-03-30T12:01:27.004Z,98919
2019-03-30T12:02:55.779Z,98921
2019-03-30T12:04:25.388Z,98918
2019-03-30T12:05:54.103Z,98916
2019-03-30T12:07:22.905Z,98918
2019-03-30T12:08:51.660Z,98919
2019-03-30T12:10:20.424Z,98918
2019-03-30T12:11:49.227Z,98917
2019-03-30T12:13:17.943Z,98918
2019-03-30T12:14:46.675Z,98916
2019-03-30T12:16:16.343Z,98914
2019-03-30T12:17:47.221Z,98912
2019-03-30T12:19:15.948Z,98911
2019-03-30T12:20:44.664Z,98910
2019-03-30T12:22:13.498Z,98906
2019-03-30T12:23:43.045Z,98905
2019-03-30T12:25:11.794Z,98903
2019-03-30T12:26:40.584Z,98900
2019-03-30T12:28:09.320Z,98892
2019-03-30T12:29:38.160Z,98893
2019-03-30T12:31:08.825Z,98888
2019-03-30T12:32:37.632Z,98884
2019-03-30T12:34:06.908Z,98885
2019-03-30T12:35:35.629Z,98885
2019-03-30T12:37:04.346Z,98886
2019-03-30T12:38:33.536Z,98883
2019-03-30T12:40:03.550Z,98880
2019-03-30T12:41:32.261Z,98875
2019-03-30T12:43:01.061Z,98871
2019-03-30T12:44:29.792Z,98869
2019-03-30T12:45:58.499Z,98868
2019-03-30T12:47:28.102Z,98864
2019-03-30T12:48:56.840Z,98863
2019-03-30T12:50:25.619Z,98863
2019-03-30T12:51:55.301Z,98858
2019-03-30T12:53:24.181Z,98856
2019-03-30T12:54:53.879Z,98850
2019-03-30T12:56:22.662Z,98845
2019-03-30T12:57:51.867Z,98846
2019-03-30T12:59:21.061Z,98844
2019-03-30T13:00:50.501Z,98846
2019-03-30T13:02:19.227Z,98843
2019-03-30T13:03:48.105Z,98840
2019-03-30T13:05:16.827Z,98837
2019-03-30T13:06:47.546Z,98838
2019-03-30T13:08:18.348Z,98834
2019-03-30T13:09:48.024Z,98828
2019-03-30T13:11:18.504Z,98821
2019-03-30T13:12:47.780Z,98826
2019-03-30T13:14:16.496Z,98827
2019-03-30T13:15:46.188Z,98827
2019-03-30T13:17:14.903Z,98823
2019-03-30T13:18:44.178Z,98818
2019-03-30T13:20:12.901Z,98818
2019-03-30T13:21:53.396Z,98817
2019-03-30T13:23:22.309Z,98813
2019-03-30T13:24:51.258Z,98812
2019-03-30T13:26:20.034Z,98811
2019-03-30T13:27:48.740Z,98805
2019-03-30T13:29:17.460Z,98805
2019-03-30T13:30:46.251Z,98802
2019-03-30T13:32:15.072Z,98803
2019-03-30T13:33:43.862Z,98802
2019-03-30T13:35:12.664Z,98802
2019-03-30T13:36:41.384Z,98805
2019-03-30T13:38:10.547Z,98804
2019-03-30T13:39:40.286Z,98806
2019-03-30T13:41:09.139Z,98801
2019-03-30T13:42:38.341Z,98793
2019-03-30T13:44:07.796Z,98793
2019-03-30T13:45:37.465Z,98796
2019-03-30T13:47:07.068Z,98793
2019-03-30T13:48:35.859Z,98789
2019-03-30T13:50:04.662Z,98782
2019-03-30T13:51:33.473Z,98785
2019-03-30T13:53:02.272Z,98782
2019-03-30T13:54:31.062Z,98777
2019-03-30T13:55:59.859Z,98771
2019-03-30T13:57:28.715Z,98772
2019-03-30T13:58:57.540Z,98771
2019-03-30T14:00:27.301Z,98768
2019-03-30T14:01:56.022Z,98769
2019-03-30T14:03:24.748Z,98767
2019-03-30T14:04:53.539Z,98763
2019-03-30T14:06:22.296Z,98766
2019-03-30T14:07:51.143Z,98767
2019-03-30T14:09:22.255Z,98766
2019-03-30T14:10:50.987Z,98765
2019-03-30T14:12:19.886Z,98762
2019-03-30T14:13:48.690Z,98759
2019-03-30T14:15:17.510Z,98758
2019-03-30T14:16:47.134Z,98754
2019-03-30T14:18:15.885Z,98758
2019-03-30T14:19:44.748Z,98753
2019-03-30T14:21:14.273Z,98754
2019-03-30T14:22:43.053Z,98753
2019-03-30T14:24:11.878Z,98756
2019-03-30T14:25:40.738Z,98759
2019-03-30T14:27:10.340Z,98757
2019-03-30T14:28:39.084Z,98755
2019-03-30T14:30:07.859Z,98750
2019-03-30T14:31:36.583Z,98745
2019-03-30T14:33:05.307Z,98749
2019-03-30T14:34:34.183Z,98752
2019-03-30T14:36:03.709Z,98748
2019-03-30T14:37:32.559Z,98741
2019-03-30T14:39:01.395Z,98741
2019-03-30T14:40:30.109Z,98743
2019-03-30T14:41:58.905Z,98742
2019-03-30T14:43:28.505Z,98740
2019-03-30T14:44:57.219Z,98737
2019-03-30T14:46:25.943Z,98736
2019-03-30T14:47:58.328Z,98733
2019-03-30T14:49:27.172Z,98729
2019-03-30T14:50:55.954Z,98725
2019-03-30T14:52:24.744Z,98726
2019-03-30T14:53:53.477Z,98727
2019-03-30T14:55:22.428Z,98727
2019-03-30T14:56:53.786Z,98726
2019-03-30T14:58:22.616Z,98727
2019-03-30T14:59:51.459Z,98725
2019-03-30T15:01:20.346Z,98723
2019-03-30T15:02:49.088Z,98722
2019-03-30T15:04:17.951Z,98720
2019-03-30T15:05:47.557Z,98718
2019-03-30T15:07:16.347Z,98717
2019-03-30T15:08:45.941Z,98713
2019-03-30T15:10:14.745Z,98714
2019-03-30T15:11:43.463Z,98712
2019-03-30T15:13:12.184Z,98708
2019-03-30T15:14:40.991Z,98708
2019-03-30T15:16:10.501Z,98708
2019-03-30T15:17:41.411Z,98705
2019-03-30T15:19:10.516Z,98703
2019-03-30T15:20:41.219Z,98703
2019-03-30T15:22:10.347Z,98702
2019-03-30T15:23:39.940Z,98702
2019-03-30T15:25:09.384Z,98703
2019-03-30T15:26:38.102Z,98701
2019-03-30T15:28:07.711Z,98698
2019-03-30T15:29:37.158Z,98696
2019-03-30T15:31:05.956Z,98694
2019-03-30T15:32:34.748Z,98690
2019-03-30T15:34:03.474Z,98688
2019-03-30T15:35:32.261Z,98685
2019-03-30T15:37:00.989Z,98688
2019-03-30T15:38:30.600Z,98685
2019-03-30T15:39:59.393Z,98686
2019-03-30T15:41:28.190Z,98681
2019-03-30T15:42:56.981Z,98679
2019-03-30T15:44:25.705Z,98677
2019-03-30T15:45:54.422Z,98675
2019-03-30T15:47:23.459Z,98675
2019-03-30T15:48:52.986Z,98676
2019-03-30T15:50:21.950Z,98677
2019-03-30T15:51:50.679Z,98677
2019-03-30T15:53:19.474Z,98678
2019-03-30T15:54:48.219Z,98678
2019-03-30T15:56:16.987Z,98676
2019-03-30T15:57:45.723Z,98674
2019-03-30T15:59:14.594Z,98676
2019-03-30T16:00:46.215Z,98677
2019-03-30T16:02:15.867Z,98678
2019-03-30T16:03:44.595Z,98677
2019-03-30T16:05:16.015Z,98676
2019-03-30T16:06:46.099Z,98672
2019-03-30T16:08:14.826Z,98672
2019-03-30T16:09:44.429Z,98671
2019-03-30T16:11:14.029Z,98671
2019-03-30T16:12:43.702Z,98671
2019-03-30T16:14:12.426Z,98670
2019-03-30T16:15:44.792Z,98673
2019-03-30T16:17:15.167Z,98676
2019-03-30T16:18:44.020Z,98676
2019-03-30T16:20:16.511Z,98672
2019-03-30T16:21:45.310Z,98671
2019-03-30T16:23:14.019Z,98671
2019-03-30T16:24:43.623Z,98671
2019-03-30T16:26:13.317Z,98669
2019-03-30T16:27:44.425Z,98669
2019-03-30T16:29:13.552Z,98669
2019-03-30T16:30:42.286Z,98668
2019-03-30T16:32:11.063Z,98666
2019-03-30T16:33:39.782Z,98664
2019-03-30T16:35:08.589Z,98665
2019-03-30T16:36:38.258Z,98665
2019-03-30T16:38:06.990Z,98663
2019-03-30T16:39:35.699Z,98663
2019-03-30T16:41:04.419Z,98662
2019-03-30T16:42:33.139Z,98662
2019-03-30T16:44:02.583Z,98661
2019-03-30T16:45:31.381Z,98660
2019-03-30T16:47:02.661Z,98658
2019-03-30T16:48:31.383Z,98656
2019-03-30T16:50:00.984Z,98656
2019-03-30T16:51:29.793Z,98657
2019-03-30T16:52:58.584Z,98658
2019-03-30T16:54:27.307Z,98657
2019-03-30T16:55:56.908Z,98656
2019-03-30T16:57:27.410Z,98655
2019-03-30T16:58:57.061Z,98654
2019-03-30T17:00:26.662Z,98653
2019-03-30T17:01:55.377Z,98653
2019-03-30T17:03:24.101Z,98655
2019-03-30T17:04:52.817Z,98655
2019-03-30T17:06:21.860Z,98654
2019-03-30T17:07:50.886Z,98653
2019-03-30T17:09:20.580Z,98654
2019-03-30T17:10:49.467Z,98652
2019-03-30T17:12:18.363Z,98653
2019-03-30T17:13:48.251Z,98652
2019-03-30T17:15:17.780Z,98654
2019-03-30T17:16:46.501Z,98655
2019-03-30T17:18:15.221Z,98656
2019-03-30T17:19:44.823Z,98656
2019-03-30T17:21:14.019Z,98658
2019-03-30T17:22:42.818Z,98655
2019-03-30T17:24:11.540Z,98655
2019-03-30T17:25:40.273Z,98655
2019-03-30T17:27:09.140Z,98654
2019-03-30T17:28:38.139Z,98655
2019-03-30T17:30:07.809Z,98655
2019-03-30T17:31:36.664Z,98656
2019-03-30T17:33:05.381Z,98655
2019-03-30T17:34:34.263Z,98656
2019-03-30T17:36:03.018Z,98657
2019-03-30T17:37:31.787Z,98658
2019-03-30T17:39:00.552Z,98660
2019-03-30T17:40:29.456Z,98660
2019-03-30T17:41:58.287Z,98659
2019-03-30T17:43:27.155Z,98661
2019-03-30T17:44:56.834Z,98661
2019-03-30T17:46:25.632Z,98665
2019-03-30T17:47:54.450Z,98667
2019-03-30T17:49:24.119Z,98667
2019-03-30T17:50:52.910Z,98667
2019-03-30T17:52:21.707Z,98667
2019-03-30T17:53:50.422Z,98669
2019-03-30T17:55:34.134Z,98669
2019-03-30T17:57:03.142Z,98668
2019-03-30T17:58:32.746Z,98672
2019-03-30T18:00:01.547Z,98673
2019-03-30T18:01:30.260Z,98674
2019-03-30T18:02:59.861Z,98674
2019-03-30T18:04:28.585Z,98676
2019-03-30T18:05:58.829Z,98677
2019-03-30T18:07:27.620Z,98675
2019-03-30T18:08:57.219Z,98676
2019-03-30T18:10:25.940Z,98677
2019-03-30T18:11:54.744Z,98677
2019-03-30T18:13:23.460Z,98676
2019-03-30T18:14:52.199Z,98677
2019-03-30T18:16:22.797Z,98680
2019-03-30T18:17:51.626Z,98681
2019-03-30T18:19:21.380Z,98681
2019-03-30T18:20:50.097Z,98684
2019-03-30T18:22:18.899Z,98685
2019-03-30T18:23:52.569Z,98687
2019-03-30T18:25:21.383Z,98688
2019-03-30T18:26:51.068Z,98689
2019-03-30T18:28:32.178Z,98693
2019-03-30T18:30:01.903Z,98695
2019-03-30T18:31:30.741Z,98694
2019-03-30T18:32:59.786Z,98694
2019-03-30T18:34:28.505Z,98695
2019-03-30T18:35:57.299Z,98697
2019-03-30T18:37:26.026Z,98698
2019-03-30T18:39:10.015Z,98698
2019-03-30T18:40:39.138Z,98697
2019-03-30T18:42:08.738Z,98698
2019-03-30T18:43:37.466Z,98702
2019-03-30T18:45:06.183Z,98703
2019-03-30T18:46:35.869Z,98703
2019-03-30T18:48:05.623Z,98704
2019-03-30T18:49:36.977Z,98704
2019-03-30T18:51:06.346Z,98705
2019-03-30T18:52:35.061Z,98705
2019-03-30T18:54:04.742Z,98705
2019-03-30T18:55:33.466Z,98707
2019-03-30T18:57:02.179Z,98709
2019-03-30T18:58:46.022Z,98712
2019-03-30T19:00:14.746Z,98712
2019-03-30T19:01:43.458Z,98714
2019-03-30T19:03:13.066Z,98715
2019-03-30T19:04:41.858Z,98716
2019-03-30T19:06:10.659Z,98718
2019-03-30T19:07:39.386Z,98718
2019-03-30T19:09:08.238Z,98720
2019-03-30T19:10:36.984Z,98718